Robijn — PBEJ — position and weather

sailwx.info

Track history (hours):
 
Tides and Currents Weather Stations Pressure Air Temp Water Temp Dewpoint Dewpoint Depression Visibility Wind Speed Wind Dir Waves Ship Positions

Robijn

Last reported at 2016-Feb-05 20:04 UTC. Time now 2016-Feb-06 09:18 UTC.
Position N 59°30' E 023°27'.

Length 90 m; draft 5.3 m.

Type: Cargo ship. MMSI: 245909000.

Date/timePositionNaut miles runAvg speedWind from/ knotsBaromVisibWave heightAir tempDewpointWater temp
2016-Feb-05 20:04N 59°30' E 023°27'610.7
2016-Feb-05 19:28N 59°32' E 023°39'3510.6
2016-Feb-05 16:11N 59°44' E 024°44'4910.0
2016-Feb-05 11:19N 60°04' E 026°12'811.1
2016-Feb-05 10:33N 60°11' E 026°21'1010.3
2016-Feb-05 09:33N 60°19' E 026°35'1110.7
2016-Feb-05 08:33N 60°24' E 026°53'2 1.6
2016-Feb-05 07:31N 60°26' E 026°55'0 0.0
2016-Feb-05 06:31N 60°26' E 026°55'0 0.0
2016-Feb-05 05:31N 60°26' E 026°55'0 0.0
2016-Feb-05 04:31N 60°26' E 026°55'0 0.0
2016-Feb-05 03:31N 60°26' E 026°55'0 0.0
2016-Feb-05 02:31N 60°26' E 026°55'0 0.0
2016-Feb-05 01:31N 60°26' E 026°55'0 0.0
2016-Feb-05 00:31N 60°26' E 026°55'0 0.0
2016-Feb-04 23:31N 60°26' E 026°55'0 0.0
2016-Feb-04 22:31N 60°26' E 026°55'0 0.0
2016-Feb-04 21:31N 60°26' E 026°55'0 0.0
2016-Feb-04 20:31N 60°26' E 026°55'0 0.0
2016-Feb-04 19:31N 60°26' E 026°55'0 0.0
2016-Feb-04 18:31N 60°26' E 026°55'0 0.0
2016-Feb-04 17:31N 60°26' E 026°55'0 0.0
2016-Feb-04 16:31N 60°26' E 026°55'0 0.0
2016-Feb-04 15:31N 60°26' E 026°55'0 0.0
2016-Feb-04 14:31N 60°26' E 026°55'0 0.0
2016-Feb-04 13:31N 60°26' E 026°55'0 0.0
2016-Feb-04 12:31N 60°26' E 026°55'0 0.0
2016-Feb-04 11:31N 60°26' E 026°55'0 0.0
2016-Feb-04 10:31N 60°26' E 026°55'0 0.0
2016-Feb-04 09:31N 60°26' E 026°55'0 0.0
2016-Feb-04 08:31N 60°26' E 026°55'0 0.0
2016-Feb-04 07:31N 60°26' E 026°55'0 0.0
2016-Feb-04 06:31N 60°26' E 026°55'0 0.0
2016-Feb-04 05:31N 60°26' E 026°55'0 0.0
2016-Feb-04 04:31N 60°26' E 026°55'0 0.0
2016-Feb-04 03:31N 60°26' E 026°55'0 0.0
2016-Feb-04 02:31N 60°26' E 026°55'0 0.0
2016-Feb-04 01:31N 60°26' E 026°55'0 0.0
2016-Feb-04 00:31N 60°26' E 026°55'0 0.0
2016-Feb-03 23:31N 60°26' E 026°55'0 0.0
2016-Feb-03 22:31N 60°26' E 026°55'0 0.0
2016-Feb-03 21:31N 60°26' E 026°55'0 0.4
2016-Feb-03 20:33N 60°25' E 026°55'1110.6
2016-Feb-03 19:33N 60°20' E 026°37'1111.0
2016-Feb-03 18:33N 60°12' E 026°22'43911.3
2016-Feb-02 03:33N 55°40' E 015°32'1111.4
2016-Feb-02 02:33N 55°35' E 015°15'1211.7
2016-Feb-02 01:33N 55°29' E 014°57'1211.7
2016-Feb-02 00:33N 55°23' E 014°39'1212.0
2016-Feb-01 23:33N 55°13' E 014°26'1211.5
2016-Feb-01 22:33N 55°05' E 014°13'1111.3
2016-Feb-01 21:33N 54°59' E 013°56'1111.5
2016-Feb-01 20:33N 54°55' E 013°37'6011.9
2016-Feb-01 15:33N 54°25' E 012°09'1212.2
2016-Feb-01 14:33N 54°25' E 011°48'1212.4
2016-Feb-01 13:33N 54°30' E 011°28'1312.6
2016-Feb-01 12:33N 54°35' E 011°09'1312.8
2016-Feb-01 11:33N 54°34' E 010°47'1211.8
2016-Feb-01 10:30N 54°31' E 010°26'1111.2
2016-Feb-01 09:33N 54°24' E 010°12'3 3.0
2016-Feb-01 08:33N 54°22' E 010°09'6 6.0
2016-Feb-01 07:33N 54°21' E 009°58'8 7.7
2016-Feb-01 06:33N 54°21' E 009°45'9 6.1
2016-Feb-01 05:09N 54°14' E 009°36'15 7.4
2016-Feb-01 03:06N 54°03' E 009°18'1 1.3
2016-Feb-01 02:27N 54°02' E 009°18'7 7.7
2016-Feb-01 01:33N 53°56' E 009°13'3 3.3
2016-Feb-01 00:33N 53°54' E 009°09'4 4.5
2016-Jan-31 23:33N 53°52' E 009°02'8 7.9
2016-Jan-31 22:33N 53°50' E 008°49'7 7.4
2016-Jan-31 21:33N 53°55' E 008°40'7 6.9
2016-Jan-31 20:33N 53°58' E 008°29'8 8.3
2016-Jan-31 19:33N 53°59' E 008°15'1010.1
2016-Jan-31 18:33N 53°58' E 007°58'1010.4
2016-Jan-31 17:33N 53°56' E 007°41'1111.0
2016-Jan-31 16:31N 53°53' E 007°22'1111.3
2016-Jan-31 15:33N 53°50' E 007°04'1211.6
2016-Jan-31 14:33N 53°47' E 006°45'1212.0
2016-Jan-31 13:32N 53°44' E 006°25'1212.1
2016-Jan-31 12:33N 53°41' E 006°06'1212.3
2016-Jan-31 11:33N 53°37' E 005°47'1312.6
2016-Jan-31 10:34N 53°33' E 005°26'1313.0
2016-Jan-31 09:33N 53°29' E 005°05'2311.4
2016-Jan-31 07:31N 53°15' E 004°35'1010.7
2016-Jan-31 06:33N 53°05' E 004°28'9 9.5
2016-Jan-31 05:34N 52°57' E 004°20'9 8.8
2016-Jan-31 04:32N 52°49' E 004°14'9 8.7
2016-Jan-31 03:31N 52°42' E 004°06'8 8.3
2016-Jan-31 02:32N 52°35' E 003°58'8 7.5
2016-Jan-31 01:32N 52°28' E 003°54'7 7.3
2016-Jan-31 00:33N 52°21' E 003°52'7 7.1
2016-Jan-30 23:33N 52°14' E 003°54'7 7.3
2016-Jan-30 22:33N 52°07' E 003°56'7 7.0
2016-Jan-30 21:33N 52°01' E 004°01'1110.8
2016-Jan-30 20:33N 51°55' E 004°16'8 7.6
2016-Jan-30 19:32N 51°54' E 004°28'0 0.0
2016-Jan-30 18:32N 51°54' E 004°28'0 0.0
2016-Jan-30 17:32N 51°54' E 004°28'0 0.0
2016-Jan-30 16:32N 51°54' E 004°28'0 0.0
2016-Jan-30 15:32N 51°54' E 004°28'0 0.0
2016-Jan-30 14:32N 51°54' E 004°28'0 0.0
2016-Jan-30 13:32N 51°54' E 004°28'0 0.0
2016-Jan-30 12:32N 51°54' E 004°28'0 0.0
2016-Jan-30 11:32N 51°54' E 004°28'0 0.0
2016-Jan-30 10:32N 51°54' E 004°28'0 0.0
2016-Jan-30 09:32N 51°54' E 004°28'0 0.0
2016-Jan-30 08:32N 51°54' E 004°28'0 0.0
2016-Jan-30 07:32N 51°54' E 004°28'0 0.0
2016-Jan-30 06:32N 51°54' E 004°28'0 0.0
2016-Jan-30 05:32N 51°54' E 004°28'0 0.0
2016-Jan-30 04:32N 51°54' E 004°28'0 0.0
2016-Jan-30 03:32N 51°54' E 004°28'0 0.0
2016-Jan-30 02:32N 51°54' E 004°28'0 0.0
2016-Jan-30 01:32N 51°54' E 004°28'0 0.0
2016-Jan-30 00:32N 51°54' E 004°28'0 0.0
2016-Jan-29 23:32N 51°54' E 004°28'0 0.0
2016-Jan-29 22:32N 51°54' E 004°28'0 0.0
2016-Jan-29 21:29N 51°54' E 004°28'0 0.0
2016-Jan-29 20:32N 51°54' E 004°28'0 0.0
2016-Jan-29 19:32N 51°54' E 004°28'0 0.0
2016-Jan-29 18:32N 51°54' E 004°28'0 0.0
2016-Jan-29 17:32N 51°54' E 004°28'0 0.1
2016-Jan-29 16:32N 51°54' E 004°28'0 0.1
2016-Jan-29 15:32N 51°54' E 004°28'0 0.0
2016-Jan-29 14:29N 51°54' E 004°28'0 0.0
2016-Jan-29 13:32N 51°54' E 004°28'0 0.0
2016-Jan-29 12:32N 51°54' E 004°28'0 0.0
2016-Jan-29 11:32N 51°54' E 004°28'0 0.0
2016-Jan-29 10:32N 51°54' E 004°28'0 0.0
2016-Jan-29 09:32N 51°54' E 004°28'0 0.0
2016-Jan-29 08:32N 51°54' E 004°28'0 0.0
2016-Jan-29 07:32N 51°54' E 004°28'0 0.0
2016-Jan-29 06:32N 51°54' E 004°28'0 0.0
2016-Jan-29 05:32N 51°54' E 004°28'0 0.0
2016-Jan-29 04:32N 51°54' E 004°28'0 0.0
2016-Jan-29 03:32N 51°54' E 004°28'0 0.0
2016-Jan-29 02:32N 51°54' E 004°28'0 0.0
2016-Jan-29 01:32N 51°54' E 004°28'0 0.0
2016-Jan-29 00:32N 51°54' E 004°28'0 0.0
2016-Jan-28 23:32N 51°54' E 004°28'0 0.0
2016-Jan-28 22:32N 51°54' E 004°28'0 0.0
2016-Jan-28 21:32N 51°54' E 004°28'0 0.0
2016-Jan-28 20:32N 51°54' E 004°28'0 0.0
2016-Jan-28 19:32N 51°54' E 004°28'0 0.0
2016-Jan-28 18:32N 51°54' E 004°28'0 0.0
2016-Jan-28 17:32N 51°54' E 004°28'0 0.0
2016-Jan-28 16:32N 51°54' E 004°28'0 0.0
2016-Jan-28 15:32N 51°54' E 004°28'0 0.0
2016-Jan-28 14:32N 51°54' E 004°28'0 0.0
2016-Jan-28 13:32N 51°54' E 004°28'0 0.0
2016-Jan-28 12:32N 51°54' E 004°28'0 0.0
2016-Jan-28 11:32N 51°54' E 004°28'0 0.0
2016-Jan-28 10:32N 51°54' E 004°28'0 0.0
2016-Jan-28 09:29N 51°54' E 004°28'0 0.0
2016-Jan-28 08:32N 51°54' E 004°28'0 0.0
2016-Jan-28 07:32N 51°54' E 004°28'0 0.0
2016-Jan-28 06:32N 51°54' E 004°28'0 0.0
2016-Jan-28 05:32N 51°54' E 004°28'0 0.0
2016-Jan-28 04:32N 51°54' E 004°28'0 0.0
2016-Jan-28 03:32N 51°54' E 004°28'0 0.0
2016-Jan-28 02:29N 51°54' E 004°28'0 0.0
2016-Jan-28 01:32N 51°54' E 004°28'0 0.0
2016-Jan-28 00:32N 51°54' E 004°28'0 0.0
2016-Jan-27 23:32N 51°54' E 004°28'0 0.0
2016-Jan-27 22:32N 51°54' E 004°28'0 0.0
2016-Jan-27 21:32N 51°54' E 004°28'0 0.0
2016-Jan-27 20:32N 51°54' E 004°28'0 0.0
2016-Jan-27 19:32N 51°54' E 004°28'0 0.0
2016-Jan-27 18:32N 51°54' E 004°28'0 0.0
2016-Jan-27 17:32N 51°54' E 004°28'0 0.0
2016-Jan-27 16:32N 51°54' E 004°28'0 0.0
2016-Jan-27 15:32N 51°54' E 004°28'0 0.0
2016-Jan-27 14:32N 51°54' E 004°28'0 0.0
2016-Jan-27 13:32N 51°54' E 004°28'0 0.0
2016-Jan-27 12:32N 51°54' E 004°28'0 0.0
2016-Jan-27 11:32N 51°54' E 004°28'0 0.0
2016-Jan-27 10:32N 51°54' E 004°28'0 0.0
2016-Jan-27 09:32N 51°54' E 004°28'0 0.0
2016-Jan-27 08:32N 51°54' E 004°28'0 0.0
2016-Jan-27 07:32N 51°54' E 004°28'0 0.0
2016-Jan-27 06:32N 51°54' E 004°28'0 0.0
2016-Jan-27 05:32N 51°54' E 004°28'0 0.0
2016-Jan-27 04:32N 51°54' E 004°28'0 0.0
2016-Jan-27 03:32N 51°54' E 004°28'0 0.0
2016-Jan-27 02:32N 51°54' E 004°28'0 0.0
2016-Jan-27 01:32N 51°54' E 004°28'0 0.0
2016-Jan-27 00:32N 51°54' E 004°28'0 0.0
2016-Jan-26 23:32N 51°54' E 004°28'0 0.0
2016-Jan-26 22:32N 51°54' E 004°28'0 0.0
2016-Jan-26 21:32N 51°54' E 004°28'0 0.0
2016-Jan-26 20:29N 51°54' E 004°28'  
Track history (hours):
 
Tides and Currents Weather Stations Pressure Air Temp Water Temp Dewpoint Dewpoint Depression Visibility Wind Speed Wind Dir Waves Ship Positions

Robijn

Last reported at 2016-Feb-05 20:04 UTC. Time now 2016-Feb-06 09:18 UTC.
Position N 59°30' E 023°27'.

Length 90 m; draft 5.3 m.

Type: Cargo ship. MMSI: 245909000.

Date/timePositionNaut miles runAvg speedWind from/ knotsBaromVisibWave heightAir tempDewpointWater temp
2016-Feb-05 20:04N 59°30' E 023°27'610.7
2016-Feb-05 19:28N 59°32' E 023°39'3510.6
2016-Feb-05 16:11N 59°44' E 024°44'4910.0
2016-Feb-05 11:19N 60°04' E 026°12'811.1
2016-Feb-05 10:33N 60°11' E 026°21'1010.3
2016-Feb-05 09:33N 60°19' E 026°35'1110.7
2016-Feb-05 08:33N 60°24' E 026°53'2 1.6
2016-Feb-05 07:31N 60°26' E 026°55'0 0.0
2016-Feb-05 06:31N 60°26' E 026°55'0 0.0
2016-Feb-05 05:31N 60°26' E 026°55'0 0.0
2016-Feb-05 04:31N 60°26' E 026°55'0 0.0
2016-Feb-05 03:31N 60°26' E 026°55'0 0.0
2016-Feb-05 02:31N 60°26' E 026°55'0 0.0
2016-Feb-05 01:31N 60°26' E 026°55'0 0.0
2016-Feb-05 00:31N 60°26' E 026°55'0 0.0
2016-Feb-04 23:31N 60°26' E 026°55'0 0.0
2016-Feb-04 22:31N 60°26' E 026°55'0 0.0
2016-Feb-04 21:31N 60°26' E 026°55'0 0.0
2016-Feb-04 20:31N 60°26' E 026°55'0 0.0
2016-Feb-04 19:31N 60°26' E 026°55'0 0.0
2016-Feb-04 18:31N 60°26' E 026°55'0 0.0
2016-Feb-04 17:31N 60°26' E 026°55'0 0.0
2016-Feb-04 16:31N 60°26' E 026°55'0 0.0
2016-Feb-04 15:31N 60°26' E 026°55'0 0.0
2016-Feb-04 14:31N 60°26' E 026°55'0 0.0
2016-Feb-04 13:31N 60°26' E 026°55'0 0.0
2016-Feb-04 12:31N 60°26' E 026°55'0 0.0
2016-Feb-04 11:31N 60°26' E 026°55'0 0.0
2016-Feb-04 10:31N 60°26' E 026°55'0 0.0
2016-Feb-04 09:31N 60°26' E 026°55'0 0.0
2016-Feb-04 08:31N 60°26' E 026°55'0 0.0
2016-Feb-04 07:31N 60°26' E 026°55'0 0.0
2016-Feb-04 06:31N 60°26' E 026°55'0 0.0
2016-Feb-04 05:31N 60°26' E 026°55'0 0.0
2016-Feb-04 04:31N 60°26' E 026°55'0 0.0
2016-Feb-04 03:31N 60°26' E 026°55'0 0.0
2016-Feb-04 02:31N 60°26' E 026°55'0 0.0
2016-Feb-04 01:31N 60°26' E 026°55'0 0.0
2016-Feb-04 00:31N 60°26' E 026°55'0 0.0
2016-Feb-03 23:31N 60°26' E 026°55'0 0.0
2016-Feb-03 22:31N 60°26' E 026°55'0 0.0
2016-Feb-03 21:31N 60°26' E 026°55'0 0.4
2016-Feb-03 20:33N 60°25' E 026°55'1110.6
2016-Feb-03 19:33N 60°20' E 026°37'1111.0
2016-Feb-03 18:33N 60°12' E 026°22'43911.3
2016-Feb-02 03:33N 55°40' E 015°32'1111.4
2016-Feb-02 02:33N 55°35' E 015°15'1211.7
2016-Feb-02 01:33N 55°29' E 014°57'1211.7
2016-Feb-02 00:33N 55°23' E 014°39'1212.0
2016-Feb-01 23:33N 55°13' E 014°26'1211.5
2016-Feb-01 22:33N 55°05' E 014°13'1111.3
2016-Feb-01 21:33N 54°59' E 013°56'1111.5
2016-Feb-01 20:33N 54°55' E 013°37'6011.9
2016-Feb-01 15:33N 54°25' E 012°09'1212.2
2016-Feb-01 14:33N 54°25' E 011°48'1212.4
2016-Feb-01 13:33N 54°30' E 011°28'1312.6
2016-Feb-01 12:33N 54°35' E 011°09'1312.8
2016-Feb-01 11:33N 54°34' E 010°47'1211.8
2016-Feb-01 10:30N 54°31' E 010°26'1111.2
2016-Feb-01 09:33N 54°24' E 010°12'3 3.0
2016-Feb-01 08:33N 54°22' E 010°09'6 6.0
2016-Feb-01 07:33N 54°21' E 009°58'8 7.7
2016-Feb-01 06:33N 54°21' E 009°45'9 6.1
2016-Feb-01 05:09N 54°14' E 009°36'15 7.4
2016-Feb-01 03:06N 54°03' E 009°18'1 1.3
2016-Feb-01 02:27N 54°02' E 009°18'7 7.7
2016-Feb-01 01:33N 53°56' E 009°13'3 3.3
2016-Feb-01 00:33N 53°54' E 009°09'4 4.5
2016-Jan-31 23:33N 53°52' E 009°02'8 7.9
2016-Jan-31 22:33N 53°50' E 008°49'7 7.4
2016-Jan-31 21:33N 53°55' E 008°40'7 6.9
2016-Jan-31 20:33N 53°58' E 008°29'8 8.3
2016-Jan-31 19:33N 53°59' E 008°15'1010.1
2016-Jan-31 18:33N 53°58' E 007°58'1010.4
2016-Jan-31 17:33N 53°56' E 007°41'1111.0
2016-Jan-31 16:31N 53°53' E 007°22'1111.3
2016-Jan-31 15:33N 53°50' E 007°04'1211.6
2016-Jan-31 14:33N 53°47' E 006°45'1212.0
2016-Jan-31 13:32N 53°44' E 006°25'1212.1
2016-Jan-31 12:33N 53°41' E 006°06'1212.3
2016-Jan-31 11:33N 53°37' E 005°47'1312.6
2016-Jan-31 10:34N 53°33' E 005°26'1313.0
2016-Jan-31 09:33N 53°29' E 005°05'2311.4
2016-Jan-31 07:31N 53°15' E 004°35'1010.7
2016-Jan-31 06:33N 53°05' E 004°28'9 9.5
2016-Jan-31 05:34N 52°57' E 004°20'9 8.8
2016-Jan-31 04:32N 52°49' E 004°14'9 8.7
2016-Jan-31 03:31N 52°42' E 004°06'8 8.3
2016-Jan-31 02:32N 52°35' E 003°58'8 7.5
2016-Jan-31 01:32N 52°28' E 003°54'7 7.3
2016-Jan-31 00:33N 52°21' E 003°52'7 7.1
2016-Jan-30 23:33N 52°14' E 003°54'7 7.3
2016-Jan-30 22:33N 52°07' E 003°56'7 7.0
2016-Jan-30 21:33N 52°01' E 004°01'1110.8
2016-Jan-30 20:33N 51°55' E 004°16'8 7.6
2016-Jan-30 19:32N 51°54' E 004°28'0 0.0
2016-Jan-30 18:32N 51°54' E 004°28'0 0.0
2016-Jan-30 17:32N 51°54' E 004°28'0 0.0
2016-Jan-30 16:32N 51°54' E 004°28'0 0.0
2016-Jan-30 15:32N 51°54' E 004°28'0 0.0
2016-Jan-30 14:32N 51°54' E 004°28'0 0.0
2016-Jan-30 13:32N 51°54' E 004°28'0 0.0
2016-Jan-30 12:32N 51°54' E 004°28'0 0.0
2016-Jan-30 11:32N 51°54' E 004°28'0 0.0
2016-Jan-30 10:32N 51°54' E 004°28'0 0.0
2016-Jan-30 09:32N 51°54' E 004°28'0 0.0
2016-Jan-30 08:32N 51°54' E 004°28'0 0.0
2016-Jan-30 07:32N 51°54' E 004°28'0 0.0
2016-Jan-30 06:32N 51°54' E 004°28'0 0.0
2016-Jan-30 05:32N 51°54' E 004°28'0 0.0
2016-Jan-30 04:32N 51°54' E 004°28'0 0.0
2016-Jan-30 03:32N 51°54' E 004°28'0 0.0
2016-Jan-30 02:32N 51°54' E 004°28'0 0.0
2016-Jan-30 01:32N 51°54' E 004°28'0 0.0
2016-Jan-30 00:32N 51°54' E 004°28'0 0.0
2016-Jan-29 23:32N 51°54' E 004°28'0 0.0
2016-Jan-29 22:32N 51°54' E 004°28'0 0.0
2016-Jan-29 21:29N 51°54' E 004°28'0 0.0
2016-Jan-29 20:32N 51°54' E 004°28'0 0.0
2016-Jan-29 19:32N 51°54' E 004°28'0 0.0
2016-Jan-29 18:32N 51°54' E 004°28'0 0.0
2016-Jan-29 17:32N 51°54' E 004°28'0 0.1
2016-Jan-29 16:32N 51°54' E 004°28'0 0.1
2016-Jan-29 15:32N 51°54' E 004°28'0 0.0
2016-Jan-29 14:29N 51°54' E 004°28'0 0.0
2016-Jan-29 13:32N 51°54' E 004°28'0 0.0
2016-Jan-29 12:32N 51°54' E 004°28'0 0.0
2016-Jan-29 11:32N 51°54' E 004°28'0 0.0
2016-Jan-29 10:32N 51°54' E 004°28'0 0.0
2016-Jan-29 09:32N 51°54' E 004°28'0 0.0
2016-Jan-29 08:32N 51°54' E 004°28'0 0.0
2016-Jan-29 07:32N 51°54' E 004°28'0 0.0
2016-Jan-29 06:32N 51°54' E 004°28'0 0.0
2016-Jan-29 05:32N 51°54' E 004°28'0 0.0
2016-Jan-29 04:32N 51°54' E 004°28'0 0.0
2016-Jan-29 03:32N 51°54' E 004°28'0 0.0
2016-Jan-29 02:32N 51°54' E 004°28'0 0.0
2016-Jan-29 01:32N 51°54' E 004°28'0 0.0
2016-Jan-29 00:32N 51°54' E 004°28'0 0.0
2016-Jan-28 23:32N 51°54' E 004°28'0 0.0
2016-Jan-28 22:32N 51°54' E 004°28'0 0.0
2016-Jan-28 21:32N 51°54' E 004°28'0 0.0
2016-Jan-28 20:32N 51°54' E 004°28'0 0.0
2016-Jan-28 19:32N 51°54' E 004°28'0 0.0
2016-Jan-28 18:32N 51°54' E 004°28'0 0.0
2016-Jan-28 17:32N 51°54' E 004°28'0 0.0
2016-Jan-28 16:32N 51°54' E 004°28'0 0.0
2016-Jan-28 15:32N 51°54' E 004°28'0 0.0
2016-Jan-28 14:32N 51°54' E 004°28'0 0.0
2016-Jan-28 13:32N 51°54' E 004°28'0 0.0
2016-Jan-28 12:32N 51°54' E 004°28'0 0.0
2016-Jan-28 11:32N 51°54' E 004°28'0 0.0
2016-Jan-28 10:32N 51°54' E 004°28'0 0.0
2016-Jan-28 09:29N 51°54' E 004°28'0 0.0
2016-Jan-28 08:32N 51°54' E 004°28'0 0.0
2016-Jan-28 07:32N 51°54' E 004°28'0 0.0
2016-Jan-28 06:32N 51°54' E 004°28'0 0.0
2016-Jan-28 05:32N 51°54' E 004°28'0 0.0
2016-Jan-28 04:32N 51°54' E 004°28'0 0.0
2016-Jan-28 03:32N 51°54' E 004°28'0 0.0
2016-Jan-28 02:29N 51°54' E 004°28'0 0.0
2016-Jan-28 01:32N 51°54' E 004°28'0 0.0
2016-Jan-28 00:32N 51°54' E 004°28'0 0.0
2016-Jan-27 23:32N 51°54' E 004°28'0 0.0
2016-Jan-27 22:32N 51°54' E 004°28'0 0.0
2016-Jan-27 21:32N 51°54' E 004°28'0 0.0
2016-Jan-27 20:32N 51°54' E 004°28'0 0.0
2016-Jan-27 19:32N 51°54' E 004°28'0 0.0
2016-Jan-27 18:32N 51°54' E 004°28'0 0.0
2016-Jan-27 17:32N 51°54' E 004°28'0 0.0
2016-Jan-27 16:32N 51°54' E 004°28'0 0.0
2016-Jan-27 15:32N 51°54' E 004°28'0 0.0
2016-Jan-27 14:32N 51°54' E 004°28'0 0.0
2016-Jan-27 13:32N 51°54' E 004°28'0 0.0
2016-Jan-27 12:32N 51°54' E 004°28'0 0.0
2016-Jan-27 11:32N 51°54' E 004°28'0 0.0
2016-Jan-27 10:32N 51°54' E 004°28'0 0.0
2016-Jan-27 09:32N 51°54' E 004°28'0 0.0
2016-Jan-27 08:32N 51°54' E 004°28'0 0.0
2016-Jan-27 07:32N 51°54' E 004°28'0 0.0
2016-Jan-27 06:32N 51°54' E 004°28'0 0.0
2016-Jan-27 05:32N 51°54' E 004°28'0 0.0
2016-Jan-27 04:32N 51°54' E 004°28'0 0.0
2016-Jan-27 03:32N 51°54' E 004°28'0 0.0
2016-Jan-27 02:32N 51°54' E 004°28'0 0.0
2016-Jan-27 01:32N 51°54' E 004°28'0 0.0
2016-Jan-27 00:32N 51°54' E 004°28'0 0.0
2016-Jan-26 23:32N 51°54' E 004°28'0 0.0
2016-Jan-26 22:32N 51°54' E 004°28'0 0.0
2016-Jan-26 21:32N 51°54' E 004°28'0 0.0
2016-Jan-26 20:29N 51°54' E 004°28'  

Dump ship's entire track history